Terminal Aerodrome Forecast
Issued by NWS Cleveland, OH

Home | Current Version | Previous Version | Text Only | Print | Product List | Glossary On
Versions: 1 2 3 4 5 6 7 8 9 10 11 12 13 14 15 16 17 18 19
000
FTUS41 KCLE 300900 AAA
TAFERI
TAF AMD
KERI 300903Z 3009/3106 26018G28KT P6SM OVC035
      TEMPO 3009/3012 OVC025
     FM301200 25015G25KT P6SM BKN045
     FM301500 26015G25KT P6SM SCT045
     FM310000 26007KT P6SM SCT120 BKN250
     FM310400 20004KT P6SM OVC120=

USA.gov is the U.S. government's official web portal to all federal, state and local government web resources and services.